createdAt,value
2022-11-05T00:00:31.154Z,17.10
2022-11-05T00:03:16.478Z,17.20
2022-11-05T00:06:03.605Z,22.00
2022-11-05T00:08:48.999Z,21.60
2022-11-05T00:11:18.294Z,17.10
2022-11-05T00:14:03.872Z,15.90
2022-11-05T00:16:45.938Z,18.00
2022-11-05T00:19:13.693Z,20.70
2022-11-05T00:22:01.259Z,37.60
2022-11-05T00:24:46.764Z,49.70
2022-11-05T00:27:13.422Z,22.30
2022-11-05T00:29:40.091Z,17.70
2022-11-05T00:32:06.821Z,23.40
2022-11-05T00:34:33.659Z,19.80
2022-11-05T00:37:00.275Z,22.40
2022-11-05T00:39:27.027Z,31.10
2022-11-05T00:42:13.932Z,37.50
2022-11-05T00:44:59.614Z,21.90
2022-11-05T00:47:45.139Z,20.70
2022-11-05T00:50:11.831Z,21.50
2022-11-05T00:52:57.372Z,25.50
2022-11-05T00:55:40.568Z,23.50
2022-11-05T00:58:12.530Z,23.80
2022-11-05T01:00:41.323Z,26.00
2022-11-05T01:03:10.498Z,23.90
2022-11-05T01:05:44.919Z,25.90
2022-11-05T01:08:12.316Z,32.70
2022-11-05T01:10:43.252Z,34.30
2022-11-05T01:13:12.984Z,36.60
2022-11-05T01:15:40.301Z,39.30
2022-11-05T01:18:07.006Z,33.30
2022-11-05T01:20:33.686Z,40.30
2022-11-05T01:23:00.375Z,31.40
2022-11-05T01:25:27.018Z,32.10
2022-11-05T01:27:53.695Z,30.70
2022-11-05T01:30:20.356Z,35.80
2022-11-05T01:32:47.119Z,34.70
2022-11-05T01:35:16.303Z,37.90
2022-11-05T01:37:44.470Z,38.10
2022-11-05T01:40:17.909Z,38.90
2022-11-05T01:42:46.890Z,32.70
2022-11-05T01:45:22.417Z,45.80
2022-11-05T01:48:03.842Z,30.30
2022-11-05T01:50:36.215Z,42.80
2022-11-05T01:53:08.737Z,44.00
2022-11-05T01:55:37.274Z,35.50
2022-11-05T01:58:05.663Z,35.80
2022-11-05T02:00:32.376Z,40.50
2022-11-05T02:02:59.143Z,37.20
2022-11-05T02:05:25.839Z,42.00
2022-11-05T02:07:52.498Z,36.90
2022-11-05T02:10:19.211Z,38.30
2022-11-05T02:12:46.990Z,33.10
2022-11-05T02:15:20.769Z,36.60
2022-11-05T02:18:19.010Z,51.70
2022-11-05T02:21:04.337Z,46.00
2022-11-05T02:24:17.275Z,53.00
2022-11-05T02:26:57.807Z,56.90
2022-11-05T02:30:03.660Z,63.70
2022-11-05T02:32:42.482Z,54.50
2022-11-05T02:35:19.831Z,53.50
2022-11-05T02:37:51.657Z,54.00
2022-11-05T02:40:30.215Z,52.20
2022-11-05T02:42:58.764Z,61.40
2022-11-05T02:45:43.343Z,70.90
2022-11-05T02:48:14.524Z,75.40
2022-11-05T02:51:26.096Z,88.00
2022-11-05T02:54:22.749Z,65.30
2022-11-05T02:56:50.227Z,63.80
2022-11-05T02:59:16.880Z,61.10
2022-11-05T03:01:44.151Z,87.90
2022-11-05T03:04:11.942Z,62.40
2022-11-05T03:06:57.454Z,44.90
2022-11-05T03:09:40.737Z,66.60
2022-11-05T03:12:22.712Z,57.70
2022-11-05T03:15:07.967Z,59.80
2022-11-05T03:17:44.762Z,58.00
2022-11-05T03:20:21.801Z,70.30
2022-11-05T03:23:14.818Z,54.90
2022-11-05T03:25:47.922Z,66.30
2022-11-05T03:28:14.603Z,55.80
2022-11-05T03:30:41.252Z,68.40
2022-11-05T03:33:11.882Z,57.50
2022-11-05T03:35:40.463Z,48.80
2022-11-05T03:38:10.523Z,36.80
2022-11-05T03:40:37.163Z,36.80
2022-11-05T03:43:05.788Z,34.80
2022-11-05T03:45:38.430Z,42.30
2022-11-05T03:48:05.203Z,35.00
2022-11-05T03:50:41.254Z,22.40
2022-11-05T03:53:16.780Z,44.40
2022-11-05T03:55:57.706Z,32.00
2022-11-05T03:58:24.413Z,40.00
2022-11-05T04:00:51.152Z,29.40
2022-11-05T04:03:17.800Z,29.70
2022-11-05T04:05:44.438Z,31.40
2022-11-05T04:08:29.647Z,34.30
2022-11-05T04:11:15.088Z,27.30
2022-11-05T04:13:41.747Z,37.50
2022-11-05T04:16:27.096Z,51.00
2022-11-05T04:18:53.749Z,34.00
2022-11-05T04:21:39.064Z,26.70
2022-11-05T04:24:08.604Z,40.00
2022-11-05T04:26:43.698Z,36.10
2022-11-05T04:29:29.081Z,31.00
2022-11-05T04:31:55.930Z,44.10
2022-11-05T04:34:22.711Z,52.30
2022-11-05T04:36:50.143Z,46.40
2022-11-05T04:39:18.137Z,42.10
2022-11-05T04:41:46.287Z,49.90
2022-11-05T04:44:12.908Z,42.40
2022-11-05T04:46:39.656Z,46.20
2022-11-05T04:49:06.593Z,47.80
2022-11-05T04:51:33.301Z,40.40
2022-11-05T04:54:00.356Z,33.20
2022-11-05T04:56:27.170Z,29.00
2022-11-05T04:58:53.815Z,28.20
2022-11-05T05:01:22.285Z,30.70
2022-11-05T05:03:50.007Z,42.20
2022-11-05T05:06:17.024Z,34.60
2022-11-05T05:08:43.717Z,35.50
2022-11-05T05:11:12.116Z,33.50
2022-11-05T05:13:38.962Z,25.50
2022-11-05T05:16:12.070Z,26.10
2022-11-05T05:18:43.523Z,33.30
2022-11-05T05:21:32.314Z,26.20
2022-11-05T05:23:58.944Z,34.40
2022-11-05T05:26:25.721Z,15.30
2022-11-05T05:28:53.811Z,30.70
2022-11-05T05:31:21.841Z,22.70
2022-11-05T05:33:49.195Z,18.30
2022-11-05T05:36:15.846Z,25.30
2022-11-05T06:27:21.529Z,20.80
2022-11-05T06:29:48.461Z,23.20
2022-11-05T06:32:15.254Z,21.10
2022-11-05T06:34:41.879Z,21.60
2022-11-05T06:37:08.541Z,25.90
2022-11-05T06:39:35.250Z,18.60
2022-11-05T06:42:18.080Z,25.40
2022-11-05T06:44:45.392Z,22.60
2022-11-05T06:47:12.181Z,26.40
2022-11-05T06:49:38.881Z,25.60
2022-11-05T06:52:05.693Z,25.90
2022-11-05T06:54:32.357Z,25.30
2022-11-05T06:56:59.004Z,30.60
2022-11-05T06:59:25.662Z,22.00
2022-11-05T07:01:52.480Z,22.70
2022-11-05T07:04:19.228Z,28.60
2022-11-05T07:06:45.879Z,22.30
2022-11-05T07:09:12.816Z,23.30
2022-11-05T07:11:39.697Z,17.70
2022-11-05T07:14:06.701Z,18.50
2022-11-05T07:16:33.378Z,17.20
2022-11-05T07:19:00.069Z,19.60
2022-11-05T07:21:26.736Z,25.50
2022-11-05T07:23:53.332Z,16.40
2022-11-05T07:26:20.255Z,17.00
2022-11-05T07:28:47.004Z,25.30
2022-11-05T07:31:13.671Z,23.20
2022-11-05T07:33:40.935Z,22.90
2022-11-05T07:36:07.970Z,26.90
2022-11-05T07:38:34.617Z,27.90
2022-11-05T07:41:01.286Z,26.70
2022-11-05T07:43:28.003Z,20.50
2022-11-05T07:45:54.869Z,20.30
2022-11-05T07:48:21.534Z,28.60
2022-11-05T07:50:51.024Z,30.90
2022-11-05T07:53:17.632Z,18.50
2022-11-05T07:55:46.060Z,18.00
2022-11-05T07:58:12.976Z,24.20
2022-11-05T08:00:39.856Z,20.50
2022-11-05T08:03:08.867Z,17.60
2022-11-05T08:05:37.582Z,28.40
2022-11-05T08:08:04.806Z,19.50
2022-11-05T08:10:31.678Z,19.50
2022-11-05T08:12:58.492Z,21.10
2022-11-05T08:15:25.295Z,22.80
2022-11-05T08:18:06.203Z,26.50
2022-11-05T08:20:33.316Z,20.70
2022-11-05T08:23:00.095Z,25.70
2022-11-05T08:25:26.972Z,20.20
2022-11-05T08:28:03.561Z,20.00
2022-11-05T08:30:30.683Z,15.40
2022-11-05T08:33:01.971Z,20.60
2022-11-05T08:35:29.250Z,18.90
2022-11-05T08:38:00.576Z,17.60
2022-11-05T08:40:27.392Z,18.50
2022-11-05T08:42:56.802Z,15.50
2022-11-05T08:45:24.764Z,18.80
2022-11-05T08:47:51.426Z,19.40
2022-11-05T08:50:18.073Z,20.90
2022-11-05T08:52:44.663Z,16.50
2022-11-05T08:55:11.413Z,19.50
2022-11-05T08:57:38.084Z,18.60
2022-11-05T09:00:05.171Z,18.60
2022-11-05T09:02:31.899Z,18.80
2022-11-05T09:04:58.539Z,19.80
2022-11-05T09:07:25.281Z,19.10
2022-11-05T09:09:52.019Z,18.80
2022-11-05T09:12:18.676Z,21.10
2022-11-05T09:14:45.315Z,23.00
2022-11-05T09:17:17.573Z,19.50
2022-11-05T09:19:44.396Z,20.00
2022-11-05T09:22:12.816Z,20.60
2022-11-05T09:24:40.348Z,21.70
2022-11-05T09:27:10.256Z,19.80
2022-11-05T09:29:37.096Z,20.00
2022-11-05T09:32:03.790Z,21.30
2022-11-05T09:34:30.460Z,21.10
2022-11-05T09:36:57.245Z,19.40
2022-11-05T09:39:23.929Z,19.20
2022-11-05T09:41:51.835Z,19.00
2022-11-05T09:44:20.485Z,19.60
2022-11-05T09:46:55.191Z,19.50
2022-11-05T09:49:30.529Z,20.90
2022-11-05T09:51:58.154Z,20.10
2022-11-05T09:54:26.803Z,18.30
2022-11-05T09:56:53.670Z,19.50
2022-11-05T09:59:26.783Z,19.00
2022-11-05T10:01:58.475Z,16.60
2022-11-05T10:04:26.222Z,19.40
2022-11-05T10:06:58.686Z,22.10
2022-11-05T10:09:28.118Z,19.00
2022-11-05T10:11:58.250Z,20.00
2022-11-05T10:14:28.554Z,20.70
2022-11-05T10:17:09.507Z,19.80
2022-11-05T10:20:08.241Z,22.60
2022-11-05T10:22:34.848Z,18.70
2022-11-05T10:25:01.528Z,18.80
2022-11-05T10:27:30.402Z,19.90
2022-11-05T10:29:57.248Z,20.90
2022-11-05T14:46:25.135Z,34.80
2022-11-05T14:49:05.191Z,31.50
2022-11-05T14:54:05.557Z,27.30
2022-11-05T14:56:50.512Z,27.80
2022-11-05T14:59:28.213Z,26.00
2022-11-05T15:01:56.960Z,26.60
2022-11-05T15:04:33.219Z,25.70
2022-11-05T15:07:05.942Z,24.60
2022-11-05T15:09:36.848Z,26.50
2022-11-05T15:12:24.641Z,28.30
2022-11-05T15:14:57.640Z,27.70
2022-11-05T15:17:31.347Z,27.90
2022-11-05T15:22:40.935Z,28.70
2022-11-05T15:25:19.097Z,27.00
2022-11-05T15:27:46.008Z,24.90
2022-11-05T15:30:22.938Z,25.30
2022-11-05T15:32:50.132Z,25.80
2022-11-05T15:35:27.983Z,25.10
2022-11-05T15:38:01.653Z,25.70
2022-11-05T15:40:30.830Z,24.40
2022-11-05T15:43:20.057Z,23.60
2022-11-05T15:45:59.093Z,24.70
2022-11-05T15:48:25.877Z,23.30
2022-11-05T15:50:52.626Z,24.40
2022-11-05T15:56:37.518Z,25.00
2022-11-05T15:59:06.099Z,27.70
2022-11-05T16:01:37.791Z,27.00
2022-11-05T16:04:26.090Z,26.10
2022-11-05T16:06:54.948Z,27.30
2022-11-05T16:09:33.362Z,25.50
2022-11-05T16:12:13.287Z,29.70
2022-11-05T16:14:40.602Z,26.90
2022-11-05T16:17:19.510Z,28.30
2022-11-05T16:19:46.505Z,29.80
2022-11-05T16:22:13.318Z,27.40
2022-11-05T16:24:40.103Z,26.90
2022-11-05T16:27:06.989Z,29.20
2022-11-05T16:29:38.205Z,28.00
2022-11-05T16:32:07.126Z,29.10
2022-11-05T16:34:37.894Z,27.00
2022-11-05T16:37:16.655Z,26.70
2022-11-05T16:39:43.599Z,28.80
2022-11-05T16:42:35.118Z,25.00
2022-11-05T16:45:01.813Z,27.70
2022-11-05T16:47:28.482Z,28.50
2022-11-05T16:49:55.261Z,28.30
2022-11-05T16:52:22.330Z,25.60
2022-11-05T16:54:49.048Z,26.10
2022-11-05T16:57:29.663Z,28.60
2022-11-05T16:59:57.259Z,26.60
2022-11-05T17:02:23.979Z,27.40
2022-11-05T17:04:50.887Z,28.70
2022-11-05T17:07:18.942Z,30.60
2022-11-05T17:09:45.554Z,27.40
2022-11-05T17:12:12.331Z,27.00
2022-11-05T17:14:39.102Z,27.90
2022-11-05T17:17:05.983Z,30.90
2022-11-05T17:19:32.803Z,28.60
2022-11-05T17:21:59.543Z,32.70
2022-11-05T17:24:26.175Z,31.30
2022-11-05T17:26:52.892Z,33.40
2022-11-05T17:29:19.609Z,32.30
2022-11-05T17:31:46.357Z,31.60
2022-11-05T17:34:13.079Z,32.00
2022-11-05T17:36:39.812Z,34.20
2022-11-05T17:39:06.447Z,32.70
2022-11-05T17:41:33.266Z,33.30
2022-11-05T17:44:00.636Z,34.30
2022-11-05T17:46:27.465Z,33.10
2022-11-05T17:48:54.560Z,32.70
2022-11-05T17:51:21.415Z,31.10
2022-11-05T17:53:49.204Z,33.80
2022-11-05T17:56:27.176Z,34.30
2022-11-05T17:59:00.258Z,34.90
2022-11-05T18:01:29.333Z,31.30
2022-11-05T18:03:56.107Z,31.90
2022-11-05T18:06:22.836Z,30.60
2022-11-05T18:08:49.467Z,31.10
2022-11-05T18:11:16.152Z,29.30
2022-11-05T18:13:43.004Z,31.40
2022-11-05T18:16:09.755Z,32.60
2022-11-05T18:18:36.470Z,29.60
2022-11-05T18:21:03.243Z,29.90
2022-11-05T18:23:30.290Z,30.80
2022-11-05T20:53:10.906Z,52.10
2022-11-05T20:55:44.773Z,57.50
2022-11-05T21:00:39.283Z,48.20
2022-11-05T21:03:05.940Z,46.40
2022-11-05T21:05:35.674Z,45.50
2022-11-05T21:08:02.660Z,40.60
2022-11-05T21:10:29.330Z,40.70
2022-11-05T21:12:55.988Z,44.10
2022-11-05T21:15:23.163Z,35.90
2022-11-05T21:17:50.679Z,39.00
2022-11-05T21:20:17.353Z,37.60
2022-11-05T21:22:45.437Z,37.90
2022-11-05T21:25:12.156Z,39.20
2022-11-05T21:27:43.287Z,33.20
2022-11-05T21:30:10.826Z,34.70
2022-11-05T21:32:37.468Z,32.70
2022-11-05T21:35:05.180Z,37.30
2022-11-05T21:37:32.281Z,35.40
2022-11-05T21:39:58.966Z,35.10
2022-11-05T21:42:25.590Z,32.10
2022-11-05T21:44:56.339Z,35.00
2022-11-05T21:47:27.744Z,35.20
2022-11-05T21:49:54.399Z,33.50
2022-11-05T21:52:39.879Z,36.60
2022-11-05T21:55:25.770Z,31.40
2022-11-05T21:58:11.475Z,36.20
2022-11-05T22:00:38.407Z,33.90
2022-11-05T22:03:05.047Z,37.10
2022-11-05T22:05:31.718Z,34.50
2022-11-05T22:07:58.428Z,32.10
2022-11-05T22:10:25.060Z,37.40
2022-11-05T22:12:51.673Z,31.80
2022-11-05T22:15:18.342Z,34.10
2022-11-05T22:17:47.084Z,34.20
2022-11-05T22:20:14.449Z,31.00
2022-11-05T22:22:41.096Z,31.90
2022-11-05T22:25:07.995Z,29.40
2022-11-05T22:27:34.754Z,30.90
2022-11-05T22:30:01.468Z,36.10
2022-11-05T22:32:28.110Z,30.30
2022-11-05T22:34:54.747Z,33.20
2022-11-05T22:37:22.687Z,31.00
2022-11-05T22:39:49.319Z,30.90
2022-11-05T22:42:16.129Z,34.10
2022-11-05T22:44:42.882Z,35.00
2022-11-05T22:47:09.576Z,32.30
2022-11-05T22:49:36.414Z,34.00
2022-11-05T22:52:03.169Z,32.50
2022-11-05T22:54:32.716Z,29.60
2022-11-05T22:57:01.807Z,32.30
2022-11-05T22:59:28.539Z,30.90
2022-11-05T23:01:55.433Z,30.90
2022-11-05T23:04:22.215Z,31.50
2022-11-05T23:07:07.541Z,32.20
2022-11-05T23:09:53.494Z,30.00
2022-11-05T23:12:28.921Z,29.60
2022-11-05T23:14:56.732Z,30.60
2022-11-05T23:17:42.142Z,30.80
2022-11-05T23:20:35.147Z,30.40
2022-11-05T23:23:20.587Z,30.90
2022-11-05T23:25:47.272Z,28.70
2022-11-05T23:28:14.581Z,27.90
2022-11-05T23:31:01.710Z,32.80
2022-11-05T23:33:28.752Z,30.80
2022-11-05T23:36:13.893Z,31.90
2022-11-05T23:38:40.541Z,29.20
2022-11-05T23:41:26.434Z,28.30
2022-11-05T23:44:11.879Z,32.20
2022-11-05T23:46:57.067Z,32.00
2022-11-05T23:49:23.711Z,31.20
2022-11-05T23:51:50.435Z,31.50
2022-11-05T23:54:17.308Z,36.80
2022-11-05T23:56:44.055Z,34.90
2022-11-05T23:59:10.678Z,37.50
